createdAt,value
2023-06-17T00:00:26.294Z,101122.56
2023-06-17T00:02:53.228Z,101102.50
2023-06-17T00:05:20.052Z,101102.69
2023-06-17T00:07:46.828Z,101095.09
2023-06-17T00:10:13.704Z,101087.13
2023-06-17T00:12:40.654Z,101105.78
2023-06-17T00:15:08.835Z,101104.66
2023-06-17T00:17:35.626Z,101094.81
2023-06-17T00:20:09.148Z,101103.88
2023-06-17T00:22:36.569Z,101095.47
2023-06-17T00:25:04.138Z,101090.97
2023-06-17T00:27:30.968Z,101089.78
2023-06-17T00:30:00.888Z,101081.00
2023-06-17T00:32:28.531Z,101096.50
2023-06-17T00:34:55.828Z,101084.09
2023-06-17T00:37:22.799Z,101099.41
2023-06-17T00:39:49.759Z,101102.09
2023-06-17T00:42:17.088Z,101108.97
2023-06-17T00:44:44.204Z,101107.97
2023-06-17T00:47:11.643Z,101095.44
2023-06-17T00:49:39.325Z,101092.13
2023-06-17T00:52:20.115Z,101100.53
2023-06-17T00:54:55.677Z,101041.94
2023-06-17T00:57:22.534Z,101057.97
2023-06-17T00:59:49.526Z,101052.53
2023-06-17T01:02:16.678Z,101062.13
2023-06-17T01:04:43.663Z,101052.19
2023-06-17T01:07:44.308Z,101049.72
2023-06-17T01:10:34.473Z,101032.69
2023-06-17T01:13:01.939Z,101037.34
2023-06-17T01:15:28.807Z,101048.09
2023-06-17T01:17:56.386Z,101037.19
2023-06-17T01:20:24.123Z,101046.59
2023-06-17T01:22:53.480Z,101037.78
2023-06-17T01:25:30.798Z,101052.16
2023-06-17T01:28:01.874Z,101052.31
2023-06-17T01:30:32.111Z,101035.41
2023-06-17T01:32:59.446Z,101043.97
2023-06-17T01:35:29.412Z,101056.38
2023-06-17T01:38:11.944Z,101053.56
2023-06-17T01:40:39.447Z,101038.56
2023-06-17T01:43:06.284Z,101049.59
2023-06-17T01:45:33.495Z,101052.22
2023-06-17T01:48:00.426Z,101052.09
2023-06-17T01:50:27.286Z,101041.34
2023-06-17T01:52:54.161Z,101049.47
2023-06-17T01:55:21.021Z,101046.63
2023-06-17T01:57:47.882Z,101057.78
2023-06-17T02:00:15.078Z,101048.78
2023-06-17T02:02:41.940Z,101045.78
2023-06-17T02:05:10.040Z,101060.00
2023-06-17T02:07:36.878Z,101052.53
2023-06-17T02:10:05.111Z,101050.59
2023-06-17T02:12:32.032Z,101060.03
2023-06-17T02:14:59.120Z,101046.97
2023-06-17T02:17:28.556Z,101046.00
2023-06-17T02:19:55.996Z,101064.94
2023-06-17T02:22:22.957Z,101064.94
2023-06-17T02:24:49.864Z,101054.88
2023-06-17T02:27:17.980Z,101061.47
2023-06-17T02:29:46.000Z,101067.56
2023-06-17T02:32:13.350Z,101063.44
2023-06-17T02:34:43.523Z,101060.81
2023-06-17T02:37:10.951Z,101054.34
2023-06-17T02:39:37.792Z,101049.56
2023-06-17T02:42:05.232Z,101033.47
2023-06-17T02:44:32.067Z,101039.25
2023-06-17T02:46:59.219Z,101034.81
2023-06-17T02:49:26.187Z,101036.44
2023-06-17T02:51:53.082Z,101042.53
2023-06-17T02:54:20.125Z,101039.38
2023-06-17T02:56:47.010Z,101044.34
2023-06-17T02:59:15.526Z,101047.50
2023-06-17T03:01:43.232Z,101044.72
2023-06-17T03:04:13.312Z,101044.72
2023-06-17T03:06:42.322Z,101016.19
2023-06-17T03:09:09.743Z,101029.91
2023-06-17T03:11:40.945Z,101046.41
2023-06-17T03:14:08.915Z,101042.53
2023-06-17T03:16:35.964Z,101036.47
2023-06-17T03:19:03.326Z,101030.06
2023-06-17T03:21:32.046Z,101038.84
2023-06-17T03:23:59.661Z,101043.50
2023-06-17T03:26:26.686Z,101028.66
2023-06-17T03:28:54.760Z,101050.16
2023-06-17T03:31:22.010Z,101044.78
2023-06-17T03:33:52.800Z,101032.94
2023-06-17T03:36:20.789Z,101035.47
2023-06-17T03:38:47.612Z,101042.44
2023-06-17T03:41:14.389Z,101039.31
2023-06-17T03:43:41.682Z,101025.69
2023-06-17T03:46:08.504Z,101040.06
2023-06-17T03:48:35.534Z,101032.34
2023-06-17T03:51:03.331Z,101037.44
2023-06-17T03:53:30.576Z,101026.75
2023-06-17T03:55:57.402Z,101026.25
2023-06-17T03:58:24.185Z,101037.00
2023-06-17T04:00:51.304Z,101024.31
2023-06-17T04:03:19.804Z,101010.59
2023-06-17T04:05:47.051Z,101020.31
2023-06-17T04:08:13.836Z,101032.38
2023-06-17T04:10:41.163Z,101031.84
2023-06-17T04:13:08.367Z,101029.38
2023-06-17T04:15:35.153Z,101017.31
2023-06-17T04:18:03.730Z,101009.06
2023-06-17T04:20:30.547Z,101023.41
2023-06-17T04:22:57.340Z,101017.94
2023-06-17T04:25:24.186Z,101016.28
2023-06-17T04:27:54.633Z,101008.84
2023-06-17T04:30:21.796Z,101015.72
2023-06-17T04:32:48.978Z,101016.97
2023-06-17T04:35:19.132Z,101016.59
2023-06-17T04:37:55.278Z,101009.94
2023-06-17T04:40:26.265Z,101006.88
2023-06-17T04:42:53.561Z,101014.47
2023-06-17T04:45:20.980Z,101027.66
2023-06-17T04:47:48.465Z,101017.75
2023-06-17T04:50:18.520Z,100997.69
2023-06-17T04:52:48.802Z,101013.97
2023-06-17T04:55:15.741Z,101006.41
2023-06-17T04:57:43.517Z,101017.91
2023-06-17T05:00:13.972Z,101019.25
2023-06-17T05:02:41.234Z,101025.38
2023-06-17T05:05:08.716Z,101026.56
2023-06-17T05:07:35.772Z,101022.03
2023-06-17T05:10:02.814Z,101007.97
2023-06-17T05:12:29.632Z,101000.59
2023-06-17T05:14:56.398Z,101007.72
2023-06-17T05:17:23.216Z,101015.13
2023-06-17T05:19:50.931Z,101007.34
2023-06-17T05:22:17.949Z,100987.63
2023-06-17T05:24:44.828Z,100974.88
2023-06-17T05:27:11.711Z,100980.91
2023-06-17T05:29:40.157Z,100981.13
2023-06-17T05:32:07.744Z,100970.50
2023-06-17T05:34:34.782Z,100972.38
2023-06-17T05:37:01.639Z,100968.88
2023-06-17T05:39:28.499Z,100953.50
2023-06-17T05:41:55.320Z,100954.13
2023-06-17T05:44:22.277Z,100963.75
2023-06-17T05:46:49.081Z,100963.75
2023-06-17T05:49:16.943Z,100949.00
2023-06-17T05:51:43.975Z,100947.59
2023-06-17T05:54:10.744Z,100959.44
2023-06-17T05:56:37.529Z,100947.09
2023-06-17T05:59:04.330Z,100958.53
2023-06-17T06:01:31.177Z,100951.78
2023-06-17T06:03:58.113Z,100951.19
2023-06-17T06:06:24.980Z,100955.28
2023-06-17T06:08:51.803Z,100955.69
2023-06-17T06:11:18.598Z,100976.41
2023-06-17T06:13:45.398Z,100974.38
2023-06-17T06:16:12.223Z,100989.31
2023-06-17T06:18:39.049Z,100988.91
2023-06-17T06:21:06.847Z,100982.38
2023-06-17T06:23:34.607Z,100997.09
2023-06-17T06:26:01.472Z,100996.47
2023-06-17T06:28:28.396Z,100992.34
2023-06-17T06:30:55.289Z,101003.53
2023-06-17T06:33:23.588Z,101015.16
2023-06-17T06:35:50.431Z,100998.31
2023-06-17T06:38:17.284Z,101013.91
2023-06-17T06:40:44.128Z,101007.53
2023-06-17T06:43:10.946Z,101005.44
2023-06-17T06:45:37.802Z,101004.72
2023-06-17T06:48:05.064Z,100990.72
2023-06-17T06:50:31.961Z,101000.91
2023-06-17T06:52:58.788Z,101001.22
2023-06-17T06:55:25.710Z,100988.75
2023-06-17T06:57:52.503Z,100997.47
2023-06-17T07:00:19.947Z,101004.84
2023-06-17T07:02:47.064Z,100990.19
2023-06-17T07:05:14.025Z,100991.44
2023-06-17T07:07:41.598Z,100989.63
2023-06-17T07:10:08.644Z,100994.22
2023-06-17T07:12:35.407Z,100983.03
2023-06-17T07:15:02.310Z,100985.78
2023-06-17T07:17:29.362Z,100990.09
2023-06-17T07:19:56.407Z,101001.41
2023-06-17T07:22:23.190Z,100993.84
2023-06-17T07:24:49.938Z,101001.25
2023-06-17T07:27:17.688Z,101000.00
2023-06-17T07:29:44.499Z,100997.38
2023-06-17T07:32:11.562Z,101000.06
2023-06-17T07:34:38.329Z,101003.53
2023-06-17T07:37:05.386Z,101009.09
2023-06-17T07:39:32.139Z,100997.91
2023-06-17T07:41:58.935Z,101009.63
2023-06-17T07:44:25.801Z,101012.09
2023-06-17T07:46:52.692Z,101000.47
2023-06-17T07:49:19.524Z,101011.72
2023-06-17T07:51:46.350Z,101022.16
2023-06-17T07:54:13.123Z,101002.59
2023-06-17T07:56:39.876Z,101007.44
2023-06-17T07:59:06.670Z,100983.88
2023-06-17T08:01:35.305Z,101013.50
2023-06-17T08:04:02.133Z,101013.06
2023-06-17T08:06:30.254Z,101019.78
2023-06-17T08:08:57.038Z,101021.78
2023-06-17T08:11:23.891Z,101012.03
2023-06-17T08:13:50.666Z,101015.97
2023-06-17T08:16:17.462Z,101011.28
2023-06-17T08:18:44.426Z,101015.28
2023-06-17T08:21:11.294Z,101015.69
2023-06-17T08:23:38.211Z,101021.91
2023-06-17T08:26:05.987Z,101021.66
2023-06-17T08:28:32.931Z,101015.94
2023-06-17T08:30:59.743Z,101012.09
2023-06-17T08:33:26.607Z,101015.38
2023-06-17T08:35:54.126Z,101024.34
2023-06-17T08:38:21.224Z,101026.38
2023-06-17T08:40:48.083Z,101014.44
2023-06-17T08:43:18.911Z,101030.16
2023-06-17T08:45:48.675Z,101028.69
2023-06-17T08:48:15.796Z,101029.06
2023-06-17T08:50:42.810Z,101030.66
2023-06-17T08:53:09.708Z,101026.34
2023-06-17T08:55:36.483Z,101012.22
2023-06-17T08:58:03.229Z,101028.31
2023-06-17T09:00:30.098Z,101029.72
2023-06-17T09:02:57.725Z,101018.66
2023-06-17T09:05:24.589Z,101032.78
2023-06-17T09:07:51.428Z,101035.06
2023-06-17T09:10:18.456Z,101048.44
2023-06-17T09:12:45.520Z,101019.16
2023-06-17T09:15:18.942Z,101023.81
2023-06-17T09:17:46.365Z,101019.03
2023-06-17T09:20:14.730Z,101026.97
2023-06-17T09:22:42.806Z,101027.75
2023-06-17T09:25:12.585Z,101024.78
2023-06-17T09:28:14.989Z,101034.09
2023-06-17T09:30:45.088Z,101027.06
2023-06-17T09:33:19.557Z,101025.81
2023-06-17T09:35:46.489Z,101029.06
2023-06-17T09:38:14.651Z,101022.25
2023-06-17T09:40:41.402Z,101022.50
2023-06-17T09:43:25.840Z,101018.94
2023-06-17T09:45:56.507Z,101017.25
2023-06-17T09:48:26.102Z,101004.72
2023-06-17T09:50:57.110Z,101005.69
2023-06-17T09:53:31.603Z,101005.66
2023-06-17T09:56:00.016Z,101000.13
2023-06-17T09:58:33.568Z,100999.84
2023-06-17T10:01:02.204Z,101002.41
2023-06-17T10:03:29.292Z,100984.16
2023-06-17T10:05:59.027Z,100994.69
2023-06-17T10:08:25.756Z,100988.81
2023-06-17T10:10:52.536Z,100993.56
2023-06-17T10:13:20.998Z,100988.84
2023-06-17T10:15:48.127Z,100983.16
2023-06-17T10:18:15.136Z,100977.59
2023-06-17T10:20:41.934Z,100984.53
2023-06-17T10:23:08.718Z,100978.19
2023-06-17T10:25:37.115Z,100980.38
2023-06-17T10:28:05.350Z,100972.56
2023-06-17T10:30:33.273Z,100980.56
2023-06-17T10:33:02.836Z,100983.41
2023-06-17T10:35:44.929Z,100985.59
2023-06-17T10:38:29.023Z,100977.19
2023-06-17T10:40:55.810Z,100975.16
2023-06-17T10:43:22.691Z,100970.16
2023-06-17T10:45:53.985Z,100984.91
2023-06-17T10:48:30.255Z,100974.97
2023-06-17T10:50:58.528Z,100965.44
2023-06-17T10:53:32.951Z,100959.75
2023-06-17T10:56:01.411Z,100952.56
2023-06-17T10:58:39.036Z,100963.19
2023-06-17T11:01:09.686Z,100966.03
2023-06-17T11:03:36.697Z,100953.13
2023-06-17T11:06:04.449Z,100950.09
2023-06-17T11:08:31.988Z,100947.38
2023-06-17T11:11:16.022Z,100957.34
2023-06-17T11:13:43.993Z,100945.50
2023-06-17T11:16:10.950Z,100935.31
2023-06-17T11:18:42.085Z,100939.44
2023-06-17T11:21:09.195Z,100937.47
2023-06-17T11:23:38.409Z,100935.75
2023-06-17T11:26:06.289Z,100926.13
2023-06-17T11:28:34.329Z,100931.19
2023-06-17T11:31:01.842Z,100917.72
2023-06-17T11:33:29.582Z,100930.72
2023-06-17T11:35:56.398Z,100929.00
2023-06-17T11:38:23.969Z,100925.13
2023-06-17T11:40:55.235Z,100935.69
2023-06-17T11:43:26.675Z,100932.19
2023-06-17T11:45:59.900Z,100935.22
2023-06-17T11:48:46.552Z,100941.72
2023-06-17T11:51:19.745Z,100945.81
2023-06-17T11:53:47.736Z,100943.66
2023-06-17T11:56:18.189Z,100936.34
2023-06-17T11:58:46.533Z,100929.63
2023-06-17T12:01:16.460Z,100936.38
2023-06-17T12:03:47.124Z,100940.13
2023-06-17T12:06:18.950Z,100941.72
2023-06-17T12:08:45.767Z,100933.41
2023-06-17T12:11:32.768Z,100927.94
2023-06-17T12:14:00.034Z,100923.16
2023-06-17T12:16:31.858Z,100922.88
2023-06-17T12:18:59.453Z,100929.47
2023-06-17T12:21:26.265Z,100931.13
2023-06-17T12:23:55.536Z,100930.22
2023-06-17T12:26:25.108Z,100929.09
2023-06-17T12:28:52.350Z,100924.78
2023-06-17T12:31:19.618Z,100914.75
2023-06-17T12:33:49.265Z,100914.19
2023-06-17T12:36:17.024Z,100916.69
2023-06-17T12:38:45.854Z,100927.81
2023-06-17T12:41:13.051Z,100928.28
2023-06-17T12:43:40.185Z,100930.91
2023-06-17T12:46:07.247Z,100932.50
2023-06-17T12:48:36.987Z,100944.59
2023-06-17T12:51:08.071Z,100934.09
2023-06-17T12:53:34.858Z,100936.03
2023-06-17T12:56:01.808Z,100927.38
2023-06-17T12:58:29.246Z,100940.00
2023-06-17T13:00:56.159Z,100929.72
2023-06-17T13:03:23.093Z,100922.84
2023-06-17T13:05:50.745Z,100942.47
2023-06-17T13:08:17.791Z,100942.22
2023-06-17T13:10:44.616Z,100946.38
2023-06-17T13:13:11.654Z,100941.22
2023-06-17T13:15:38.897Z,100939.56
2023-06-17T13:18:06.024Z,100946.81
2023-06-17T13:20:32.887Z,100955.06
2023-06-17T13:23:01.120Z,100948.16
2023-06-17T13:25:28.093Z,100946.22
2023-06-17T13:27:55.289Z,100919.47
2023-06-17T13:30:22.530Z,100932.72
2023-06-17T13:32:49.801Z,100931.41
2023-06-17T13:35:16.837Z,100933.31
2023-06-17T13:37:43.632Z,100937.19
2023-06-17T13:40:10.621Z,100952.25
2023-06-17T13:42:37.453Z,100938.94
2023-06-17T13:45:05.946Z,100936.78
2023-06-17T13:47:33.788Z,100936.94
2023-06-17T13:50:01.126Z,100929.88
2023-06-17T13:52:27.969Z,100927.53
2023-06-17T13:54:54.760Z,100935.25
2023-06-17T13:57:21.577Z,100927.25
2023-06-17T13:59:48.534Z,100929.38
2023-06-17T14:02:15.546Z,100938.66
2023-06-17T14:04:43.353Z,100924.28
2023-06-17T14:07:10.334Z,100938.66
2023-06-17T14:09:37.162Z,100946.94
2023-06-17T14:12:04.188Z,100941.28
2023-06-17T14:14:31.277Z,100946.41
2023-06-17T14:17:00.697Z,100919.19
2023-06-17T14:19:29.237Z,100952.97
2023-06-17T14:22:00.565Z,100940.56
2023-06-17T14:24:27.506Z,100930.06
2023-06-17T14:27:18.362Z,100939.69
2023-06-17T14:29:45.153Z,100936.13
2023-06-17T14:32:11.976Z,100945.84
2023-06-17T14:34:38.796Z,100944.44
2023-06-17T14:37:06.127Z,100929.41
2023-06-17T14:39:32.882Z,100926.50
2023-06-17T14:41:59.753Z,100932.88
2023-06-17T14:44:26.587Z,100926.38
2023-06-17T14:46:53.373Z,100934.34
2023-06-17T14:49:20.569Z,100937.69
2023-06-17T14:51:49.327Z,100908.63
2023-06-17T14:54:16.243Z,100909.44
2023-06-17T14:56:43.232Z,100927.28
2023-06-17T14:59:10.105Z,100926.13
2023-06-17T15:01:38.016Z,100948.81
2023-06-17T15:04:07.620Z,100949.72
2023-06-17T15:06:35.053Z,100963.47
2023-06-17T15:09:25.865Z,100970.97
2023-06-17T15:12:03.355Z,100949.06
2023-06-17T15:14:36.033Z,100951.00
2023-06-17T15:17:03.284Z,100969.91
2023-06-17T15:19:30.105Z,100945.31
2023-06-17T15:21:56.900Z,100939.78
2023-06-17T15:24:23.793Z,100937.28
2023-06-17T15:26:50.750Z,100943.03
2023-06-17T15:29:17.633Z,100950.72
2023-06-17T15:31:45.320Z,100929.84
2023-06-17T15:34:12.114Z,100945.59
2023-06-17T15:36:38.889Z,100954.63
2023-06-17T15:39:20.638Z,100951.19
2023-06-17T15:41:47.524Z,100946.50
2023-06-17T15:44:17.395Z,100945.69
2023-06-17T15:46:44.430Z,100944.25
2023-06-17T15:49:11.378Z,100940.38
2023-06-17T15:51:38.242Z,100955.09
2023-06-17T15:54:05.152Z,100949.75
2023-06-17T15:56:32.093Z,100926.81
2023-06-17T15:59:00.846Z,100922.75
2023-06-17T16:01:28.244Z,100940.97
2023-06-17T16:03:57.580Z,100943.03
2023-06-17T16:06:24.408Z,100940.31
2023-06-17T16:08:52.524Z,100942.34
2023-06-17T16:11:19.741Z,100937.63
2023-06-17T16:13:46.565Z,100933.31
2023-06-17T16:16:13.394Z,100941.31
2023-06-17T16:18:40.291Z,100932.66
2023-06-17T16:21:07.073Z,100936.34
2023-06-17T16:23:33.953Z,100931.78
2023-06-17T16:26:00.735Z,100942.97
2023-06-17T16:28:27.557Z,100932.13
2023-06-17T16:30:54.294Z,100930.44
2023-06-17T16:33:21.117Z,100933.69
2023-06-17T16:35:48.015Z,100917.41
2023-06-17T16:38:14.835Z,100928.97
2023-06-17T16:40:41.602Z,100938.09
2023-06-17T16:43:08.380Z,100931.44
2023-06-17T16:45:35.425Z,100936.53
2023-06-17T16:48:02.397Z,100916.00
2023-06-17T16:50:29.306Z,100933.09
2023-06-17T16:52:56.171Z,100928.53
2023-06-17T16:55:22.948Z,100935.09
2023-06-17T16:57:49.724Z,100946.34
2023-06-17T17:00:17.923Z,100942.22
2023-06-17T17:02:44.946Z,100937.69
2023-06-17T17:05:11.822Z,100929.81
2023-06-17T17:07:38.676Z,100928.69
2023-06-17T17:10:05.981Z,100934.22
2023-06-17T17:12:32.816Z,100947.22
2023-06-17T17:14:59.622Z,100936.47
2023-06-17T17:17:26.880Z,100957.09
2023-06-17T17:19:54.857Z,100947.66
2023-06-17T17:22:21.643Z,100932.19
2023-06-17T17:24:51.198Z,100950.13
2023-06-17T17:27:18.152Z,100939.47
2023-06-17T17:29:44.977Z,100950.06
2023-06-17T17:32:12.158Z,100931.75
2023-06-17T17:34:39.201Z,100923.56
2023-06-17T17:37:06.081Z,100932.28
2023-06-17T17:39:32.897Z,100927.75
2023-06-17T17:41:59.662Z,100934.94
2023-06-17T17:44:26.404Z,100934.50
2023-06-17T17:46:53.254Z,100937.75
2023-06-17T17:49:20.017Z,100937.75
2023-06-17T17:51:46.827Z,100931.56
2023-06-17T17:54:13.628Z,100938.06
2023-06-17T17:56:40.416Z,100931.69
2023-06-17T17:59:07.334Z,100929.78
2023-06-17T18:01:34.149Z,100951.63
2023-06-17T18:04:01.317Z,100936.78
2023-06-17T18:06:30.636Z,100951.50
2023-06-17T18:08:57.808Z,100929.13
2023-06-17T18:11:24.640Z,100960.06
2023-06-17T18:13:53.189Z,100951.59
2023-06-17T18:16:23.124Z,100945.31
2023-06-17T18:18:50.271Z,100959.84
2023-06-17T18:21:17.169Z,100959.38
2023-06-17T18:23:43.929Z,100935.25
2023-06-17T18:26:10.900Z,100946.88
2023-06-17T18:28:40.450Z,100957.03
2023-06-17T18:31:07.211Z,100961.31
2023-06-17T18:33:34.086Z,100963.50
2023-06-17T18:36:00.938Z,100962.41
2023-06-17T18:38:27.970Z,100960.13
2023-06-17T18:40:54.765Z,100972.38
2023-06-17T18:43:21.893Z,100952.94
2023-06-17T18:45:49.392Z,100977.50
2023-06-17T18:48:16.615Z,100971.41
2023-06-17T18:50:43.438Z,100973.50
2023-06-17T18:53:10.868Z,100973.97
2023-06-17T18:55:38.651Z,100969.94
2023-06-17T18:58:05.557Z,100984.09
2023-06-17T19:00:34.871Z,100996.31
2023-06-17T19:03:04.806Z,100988.53
2023-06-17T19:05:31.634Z,100988.63
2023-06-17T19:07:58.399Z,100989.66
2023-06-17T19:10:25.233Z,100993.47
2023-06-17T19:12:52.124Z,100997.81
2023-06-17T19:15:18.962Z,100993.97
2023-06-17T19:17:45.788Z,100995.47
2023-06-17T19:20:13.220Z,100992.91
2023-06-17T19:22:40.571Z,100996.25
2023-06-17T19:25:07.761Z,101009.47
2023-06-17T19:27:34.737Z,101006.22
2023-06-17T19:30:02.575Z,101002.97
2023-06-17T19:32:29.530Z,101002.56
2023-06-17T19:34:58.311Z,100997.47
2023-06-17T19:37:25.752Z,101001.94
2023-06-17T19:39:52.614Z,101005.25
2023-06-17T19:42:19.991Z,101011.41
2023-06-17T19:44:47.090Z,101005.16
2023-06-17T19:47:16.635Z,101013.91
2023-06-17T19:49:43.459Z,100991.19
2023-06-17T19:52:10.251Z,100996.00
2023-06-17T19:54:37.033Z,101012.31
2023-06-17T19:57:04.180Z,101018.75
2023-06-17T19:59:31.844Z,101021.56
2023-06-17T20:01:58.746Z,101017.94
2023-06-17T20:04:25.668Z,101012.19
2023-06-17T20:06:52.492Z,101018.97
2023-06-17T20:09:19.302Z,101034.81
2023-06-17T20:11:46.169Z,101022.13
2023-06-17T20:14:13.873Z,101027.59
2023-06-17T20:16:40.802Z,101023.97
2023-06-17T20:19:07.684Z,101029.56
2023-06-17T20:21:34.614Z,101017.38
2023-06-17T20:24:01.496Z,101024.09
2023-06-17T20:26:28.365Z,101035.00
2023-06-17T20:28:55.257Z,101031.38
2023-06-17T20:31:22.078Z,101020.97
2023-06-17T20:33:48.948Z,101024.25
2023-06-17T20:36:16.087Z,101030.84
2023-06-17T20:38:42.997Z,101022.94
2023-06-17T20:41:09.858Z,101032.50
2023-06-17T20:43:36.704Z,101020.72
2023-06-17T20:46:03.807Z,101033.44
2023-06-17T20:48:30.623Z,101021.22
2023-06-17T20:50:57.464Z,101016.44
2023-06-17T20:53:24.380Z,101019.22
2023-06-17T20:55:51.396Z,101014.75
2023-06-17T20:58:18.277Z,101025.13
2023-06-17T21:00:45.917Z,101023.00
2023-06-17T21:03:12.922Z,101025.13
2023-06-17T21:05:39.849Z,100987.03
2023-06-17T21:08:06.856Z,101021.03
2023-06-17T21:10:33.722Z,101017.41
2023-06-17T21:13:00.630Z,101030.25
2023-06-17T21:15:27.408Z,101029.56
2023-06-17T21:17:54.423Z,101029.75
2023-06-17T21:20:21.773Z,101028.25
2023-06-17T21:22:49.253Z,101026.09
2023-06-17T21:25:16.217Z,101039.50
2023-06-17T21:27:43.206Z,101020.84
2023-06-17T21:30:10.607Z,101029.94
2023-06-17T21:32:37.434Z,101032.56
2023-06-17T21:35:04.549Z,101035.34
2023-06-17T21:37:31.650Z,101045.59
2023-06-17T21:39:58.476Z,101048.22
2023-06-17T21:42:25.922Z,101044.94
2023-06-17T21:44:52.750Z,101048.91
2023-06-17T21:47:19.650Z,101041.81
2023-06-17T21:49:46.516Z,101041.63
2023-06-17T21:52:13.450Z,101037.19
2023-06-17T21:54:40.371Z,101042.63
2023-06-17T21:57:07.299Z,101040.31
2023-06-17T21:59:34.268Z,101048.22
2023-06-17T22:02:01.232Z,101052.50
2023-06-17T22:04:28.246Z,101052.84
2023-06-17T22:06:57.070Z,101060.25
2023-06-17T22:09:23.953Z,101064.72
2023-06-17T22:11:51.133Z,101042.44
2023-06-17T22:14:17.938Z,101054.00
2023-06-17T22:16:44.708Z,101053.84
2023-06-17T22:19:11.905Z,101046.75
2023-06-17T22:21:38.686Z,101047.25
2023-06-17T22:24:05.783Z,101064.22
2023-06-17T22:26:32.853Z,101059.94
2023-06-17T22:28:59.770Z,101047.59
2023-06-17T22:31:26.620Z,101049.13
2023-06-17T22:33:53.459Z,101051.44
2023-06-17T22:36:20.245Z,101056.72
2023-06-17T22:38:47.100Z,101057.84
2023-06-17T22:41:14.028Z,101070.09
2023-06-17T22:43:40.845Z,101050.94
2023-06-17T22:46:09.478Z,101058.84
2023-06-17T22:48:36.468Z,101050.13
2023-06-17T22:51:03.300Z,101070.09
2023-06-17T22:53:30.098Z,101059.22
2023-06-17T22:55:56.907Z,101054.44
2023-06-17T22:58:24.009Z,101043.22
2023-06-17T23:00:50.858Z,101044.72
2023-06-17T23:03:17.772Z,101040.06
2023-06-17T23:05:44.679Z,101050.63
2023-06-17T23:08:11.482Z,101042.53
2023-06-17T23:10:38.355Z,101040.56
2023-06-17T23:13:05.210Z,101040.91
2023-06-17T23:15:33.338Z,101036.63
2023-06-17T23:18:00.204Z,101048.81
2023-06-17T23:20:27.221Z,101038.25
2023-06-17T23:22:55.294Z,101044.69
2023-06-17T23:25:22.181Z,101046.16
2023-06-17T23:27:50.212Z,101032.84
2023-06-17T23:30:18.643Z,101059.53
2023-06-17T23:32:46.071Z,101037.94
2023-06-17T23:35:12.925Z,101047.03
2023-06-17T23:37:39.769Z,101031.66
2023-06-17T23:40:07.285Z,101038.63
2023-06-17T23:42:34.060Z,101040.75
2023-06-17T23:45:01.866Z,101042.25
2023-06-17T23:47:28.655Z,101045.53
2023-06-17T23:49:55.478Z,101032.19
2023-06-17T23:52:22.241Z,101039.13
2023-06-17T23:54:49.128Z,101030.06
2023-06-17T23:57:16.031Z,101026.94
2023-06-17T23:59:42.828Z,101040.44
